sensor_id;sensor_type;location;lat;lon;timestamp;P1;durP1;ratioP1;P2;durP2;ratioP2
20095;SDS011;10207;50.942;6.900;2022-11-20T00:02:15;20.47;;;11.90;;
20095;SDS011;10207;50.942;6.900;2022-11-20T00:04:41;20.63;;;11.48;;
20095;SDS011;10207;50.942;6.900;2022-11-20T00:07:07;20.30;;;11.90;;
20095;SDS011;10207;50.942;6.900;2022-11-20T00:09:32;18.77;;;11.07;;
20095;SDS011;10207;50.942;6.900;2022-11-20T00:11:58;17.27;;;10.80;;
20095;SDS011;10207;50.942;6.900;2022-11-20T00:14:24;17.77;;;10.83;;
20095;SDS011;10207;50.942;6.900;2022-11-20T00:16:49;19.17;;;11.30;;
20095;SDS011;10207;50.942;6.900;2022-11-20T00:19:15;18.90;;;10.63;;
20095;SDS011;10207;50.942;6.900;2022-11-20T00:21:41;17.27;;;10.80;;
20095;SDS011;10207;50.942;6.900;2022-11-20T00:24:09;18.73;;;10.63;;
20095;SDS011;10207;50.942;6.900;2022-11-20T00:26:36;18.33;;;11.30;;
20095;SDS011;10207;50.942;6.900;2022-11-20T00:29:02;17.83;;;11.13;;
20095;SDS011;10207;50.942;6.900;2022-11-20T00:31:28;18.43;;;11.10;;
20095;SDS011;10207;50.942;6.900;2022-11-20T00:33:53;19.13;;;11.43;;
20095;SDS011;10207;50.942;6.900;2022-11-20T00:36:23;20.10;;;12.10;;
20095;SDS011;10207;50.942;6.900;2022-11-20T00:38:52;19.43;;;11.40;;
20095;SDS011;10207;50.942;6.900;2022-11-20T00:41:18;17.63;;;10.97;;
20095;SDS011;10207;50.942;6.900;2022-11-20T00:43:44;18.10;;;10.40;;
20095;SDS011;10207;50.942;6.900;2022-11-20T00:46:12;17.70;;;10.43;;
20095;SDS011;10207;50.942;6.900;2022-11-20T00:48:38;18.77;;;10.90;;
20095;SDS011;10207;50.942;6.900;2022-11-20T00:51:04;16.83;;;11.27;;
20095;SDS011;10207;50.942;6.900;2022-11-20T00:53:29;19.03;;;11.90;;
20095;SDS011;10207;50.942;6.900;2022-11-20T00:55:56;18.20;;;11.13;;
20095;SDS011;10207;50.942;6.900;2022-11-20T00:58:22;19.75;;;11.00;;
20095;SDS011;10207;50.942;6.900;2022-11-20T01:00:48;19.47;;;10.30;;
20095;SDS011;10207;50.942;6.900;2022-11-20T01:03:15;20.50;;;10.97;;
20095;SDS011;10207;50.942;6.900;2022-11-20T01:05:41;17.40;;;11.80;;
20095;SDS011;10207;50.942;6.900;2022-11-20T01:08:07;17.63;;;10.30;;
20095;SDS011;10207;50.942;6.900;2022-11-20T01:10:33;17.83;;;11.07;;
20095;SDS011;10207;50.942;6.900;2022-11-20T01:12:59;16.53;;;10.37;;
20095;SDS011;10207;50.942;6.900;2022-11-20T01:15:43;18.70;;;10.70;;
20095;SDS011;10207;50.942;6.900;2022-11-20T01:18:09;16.47;;;10.97;;
20095;SDS011;10207;50.942;6.900;2022-11-20T01:20:35;17.03;;;10.13;;
20095;SDS011;10207;50.942;6.900;2022-11-20T01:23:02;20.80;;;12.17;;
20095;SDS011;10207;50.942;6.900;2022-11-20T01:25:28;18.13;;;10.60;;
20095;SDS011;10207;50.942;6.900;2022-11-20T01:27:53;19.33;;;11.23;;
20095;SDS011;10207;50.942;6.900;2022-11-20T01:30:19;19.63;;;11.57;;
20095;SDS011;10207;50.942;6.900;2022-11-20T01:32:45;18.00;;;11.17;;
20095;SDS011;10207;50.942;6.900;2022-11-20T01:35:10;18.60;;;11.40;;
20095;SDS011;10207;50.942;6.900;2022-11-20T01:37:36;17.60;;;11.03;;
20095;SDS011;10207;50.942;6.900;2022-11-20T01:40:02;21.80;;;10.93;;
20095;SDS011;10207;50.942;6.900;2022-11-20T01:42:27;18.80;;;11.13;;
20095;SDS011;10207;50.942;6.900;2022-11-20T01:47:56;19.70;;;11.17;;
20095;SDS011;10207;50.942;6.900;2022-11-20T01:50:23;20.87;;;11.27;;
20095;SDS011;10207;50.942;6.900;2022-11-20T01:52:52;19.60;;;11.17;;
20095;SDS011;10207;50.942;6.900;2022-11-20T01:55:22;18.17;;;10.70;;
20095;SDS011;10207;50.942;6.900;2022-11-20T01:57:49;22.13;;;10.52;;
20095;SDS011;10207;50.942;6.900;2022-11-20T02:00:15;20.17;;;11.47;;
20095;SDS011;10207;50.942;6.900;2022-11-20T02:02:44;17.83;;;10.30;;
20095;SDS011;10207;50.942;6.900;2022-11-20T02:07:45;18.43;;;10.87;;
20095;SDS011;10207;50.942;6.900;2022-11-20T02:10:11;19.67;;;11.20;;
20095;SDS011;10207;50.942;6.900;2022-11-20T02:12:37;17.73;;;10.83;;
20095;SDS011;10207;50.942;6.900;2022-11-20T02:15:22;19.30;;;10.67;;
20095;SDS011;10207;50.942;6.900;2022-11-20T02:17:48;18.30;;;11.67;;
20095;SDS011;10207;50.942;6.900;2022-11-20T02:20:14;19.30;;;10.83;;
20095;SDS011;10207;50.942;6.900;2022-11-20T02:22:59;18.03;;;10.37;;
20095;SDS011;10207;50.942;6.900;2022-11-20T02:25:27;18.70;;;10.87;;
20095;SDS011;10207;50.942;6.900;2022-11-20T02:27:52;13.93;;;9.63;;
20095;SDS011;10207;50.942;6.900;2022-11-20T02:30:18;17.63;;;10.63;;
20095;SDS011;10207;50.942;6.900;2022-11-20T02:32:44;19.90;;;11.23;;
20095;SDS011;10207;50.942;6.900;2022-11-20T02:35:39;18.33;;;10.90;;
20095;SDS011;10207;50.942;6.900;2022-11-20T02:37:57;15.07;;;9.63;;
20095;SDS011;10207;50.942;6.900;2022-11-20T02:40:23;18.87;;;11.30;;
20095;SDS011;10207;50.942;6.900;2022-11-20T02:42:53;18.23;;;10.33;;
20095;SDS011;10207;50.942;6.900;2022-11-20T02:45:19;21.10;;;11.43;;
20095;SDS011;10207;50.942;6.900;2022-11-20T02:47:44;17.93;;;10.83;;
20095;SDS011;10207;50.942;6.900;2022-11-20T02:50:10;17.80;;;10.60;;
20095;SDS011;10207;50.942;6.900;2022-11-20T02:52:36;20.13;;;11.17;;
20095;SDS011;10207;50.942;6.900;2022-11-20T02:55:01;19.00;;;11.23;;
20095;SDS011;10207;50.942;6.900;2022-11-20T02:57:27;17.07;;;10.43;;
20095;SDS011;10207;50.942;6.900;2022-11-20T02:59:53;17.13;;;10.20;;
20095;SDS011;10207;50.942;6.900;2022-11-20T03:02:19;16.73;;;10.33;;
20095;SDS011;10207;50.942;6.900;2022-11-20T03:04:45;18.30;;;10.63;;
20095;SDS011;10207;50.942;6.900;2022-11-20T03:07:10;18.57;;;10.97;;
20095;SDS011;10207;50.942;6.900;2022-11-20T03:09:36;18.53;;;10.37;;
20095;SDS011;10207;50.942;6.900;2022-11-20T03:12:02;20.83;;;11.90;;
20095;SDS011;10207;50.942;6.900;2022-11-20T03:14:28;17.70;;;10.03;;
20095;SDS011;10207;50.942;6.900;2022-11-20T03:16:53;15.53;;;9.97;;
20095;SDS011;10207;50.942;6.900;2022-11-20T03:19:19;17.20;;;10.10;;
20095;SDS011;10207;50.942;6.900;2022-11-20T03:21:45;19.77;;;11.53;;
20095;SDS011;10207;50.942;6.900;2022-11-20T03:24:10;18.77;;;10.77;;
20095;SDS011;10207;50.942;6.900;2022-11-20T03:26:36;15.83;;;9.73;;
20095;SDS011;10207;50.942;6.900;2022-11-20T03:29:02;18.23;;;10.33;;
20095;SDS011;10207;50.942;6.900;2022-11-20T03:31:29;16.50;;;10.37;;
20095;SDS011;10207;50.942;6.900;2022-11-20T03:33:56;17.43;;;10.67;;
20095;SDS011;10207;50.942;6.900;2022-11-20T03:36:22;18.30;;;11.10;;
20095;SDS011;10207;50.942;6.900;2022-11-20T03:38:48;20.67;;;11.40;;
20095;SDS011;10207;50.942;6.900;2022-11-20T03:41:15;17.73;;;10.60;;
20095;SDS011;10207;50.942;6.900;2022-11-20T03:43:41;16.93;;;10.57;;
20095;SDS011;10207;50.942;6.900;2022-11-20T03:46:07;16.73;;;9.97;;
20095;SDS011;10207;50.942;6.900;2022-11-20T03:48:33;16.43;;;9.93;;
20095;SDS011;10207;50.942;6.900;2022-11-20T03:51:18;17.60;;;10.27;;
20095;SDS011;10207;50.942;6.900;2022-11-20T03:53:45;17.70;;;10.37;;
20095;SDS011;10207;50.942;6.900;2022-11-20T03:56:11;18.00;;;10.30;;
20095;SDS011;10207;50.942;6.900;2022-11-20T03:58:38;17.90;;;10.30;;
20095;SDS011;10207;50.942;6.900;2022-11-20T04:01:08;20.03;;;10.93;;
20095;SDS011;10207;50.942;6.900;2022-11-20T04:03:34;16.83;;;10.23;;
20095;SDS011;10207;50.942;6.900;2022-11-20T04:06:02;18.57;;;10.63;;
20095;SDS011;10207;50.942;6.900;2022-11-20T04:08:28;16.97;;;11.20;;
20095;SDS011;10207;50.942;6.900;2022-11-20T04:10:53;17.30;;;10.30;;
20095;SDS011;10207;50.942;6.900;2022-11-20T04:13:19;19.07;;;11.03;;
20095;SDS011;10207;50.942;6.900;2022-11-20T04:15:45;18.97;;;10.83;;
20095;SDS011;10207;50.942;6.900;2022-11-20T04:18:10;20.67;;;11.03;;
20095;SDS011;10207;50.942;6.900;2022-11-20T04:20:36;18.27;;;11.40;;
20095;SDS011;10207;50.942;6.900;2022-11-20T04:23:02;20.17;;;11.93;;
20095;SDS011;10207;50.942;6.900;2022-11-20T04:25:27;22.73;;;12.40;;
20095;SDS011;10207;50.942;6.900;2022-11-20T04:27:53;19.93;;;11.93;;
20095;SDS011;10207;50.942;6.900;2022-11-20T04:30:19;21.00;;;12.27;;
20095;SDS011;10207;50.942;6.900;2022-11-20T04:32:44;21.73;;;11.73;;
20095;SDS011;10207;50.942;6.900;2022-11-20T04:35:10;19.70;;;12.23;;
20095;SDS011;10207;50.942;6.900;2022-11-20T04:37:36;18.40;;;11.00;;
20095;SDS011;10207;50.942;6.900;2022-11-20T04:40:01;22.20;;;11.90;;
20095;SDS011;10207;50.942;6.900;2022-11-20T04:42:27;21.97;;;12.17;;
20095;SDS011;10207;50.942;6.900;2022-11-20T04:44:56;21.57;;;12.13;;
20095;SDS011;10207;50.942;6.900;2022-11-20T04:47:22;21.83;;;12.03;;
20095;SDS011;10207;50.942;6.900;2022-11-20T04:49:47;22.47;;;12.23;;
20095;SDS011;10207;50.942;6.900;2022-11-20T04:52:13;19.17;;;12.60;;
20095;SDS011;10207;50.942;6.900;2022-11-20T04:54:39;21.10;;;12.20;;
20095;SDS011;10207;50.942;6.900;2022-11-20T04:57:05;22.73;;;12.97;;
20095;SDS011;10207;50.942;6.900;2022-11-20T04:59:30;21.23;;;12.13;;
20095;SDS011;10207;50.942;6.900;2022-11-20T05:01:56;19.53;;;11.93;;
20095;SDS011;10207;50.942;6.900;2022-11-20T05:04:22;20.33;;;12.27;;
20095;SDS011;10207;50.942;6.900;2022-11-20T05:06:49;21.60;;;12.97;;
20095;SDS011;10207;50.942;6.900;2022-11-20T05:09:14;23.50;;;12.67;;
20095;SDS011;10207;50.942;6.900;2022-11-20T05:11:40;18.80;;;11.23;;
20095;SDS011;10207;50.942;6.900;2022-11-20T05:14:06;20.60;;;11.97;;
20095;SDS011;10207;50.942;6.900;2022-11-20T05:16:33;20.03;;;12.30;;
20095;SDS011;10207;50.942;6.900;2022-11-20T05:18:59;23.73;;;13.25;;
20095;SDS011;10207;50.942;6.900;2022-11-20T05:21:25;20.13;;;11.80;;
20095;SDS011;10207;50.942;6.900;2022-11-20T05:23:50;20.33;;;12.30;;
20095;SDS011;10207;50.942;6.900;2022-11-20T05:26:17;21.63;;;11.67;;
20095;SDS011;10207;50.942;6.900;2022-11-20T05:28:43;20.43;;;12.03;;
20095;SDS011;10207;50.942;6.900;2022-11-20T05:31:13;20.50;;;12.63;;
20095;SDS011;10207;50.942;6.900;2022-11-20T05:33:42;18.33;;;11.20;;
20095;SDS011;10207;50.942;6.900;2022-11-20T05:36:08;19.80;;;12.07;;
20095;SDS011;10207;50.942;6.900;2022-11-20T05:38:34;21.57;;;11.40;;
20095;SDS011;10207;50.942;6.900;2022-11-20T05:43:34;21.60;;;13.03;;
20095;SDS011;10207;50.942;6.900;2022-11-20T05:46:00;21.17;;;11.83;;
20095;SDS011;10207;50.942;6.900;2022-11-20T05:48:26;22.03;;;13.27;;
20095;SDS011;10207;50.942;6.900;2022-11-20T05:50:51;21.47;;;12.23;;
20095;SDS011;10207;50.942;6.900;2022-11-20T05:53:17;19.83;;;11.03;;
20095;SDS011;10207;50.942;6.900;2022-11-20T05:55:43;21.33;;;11.93;;
20095;SDS011;10207;50.942;6.900;2022-11-20T05:58:09;22.17;;;12.10;;
20095;SDS011;10207;50.942;6.900;2022-11-20T06:00:35;22.33;;;12.45;;
20095;SDS011;10207;50.942;6.900;2022-11-20T06:03:01;21.02;;;12.88;;
20095;SDS011;10207;50.942;6.900;2022-11-20T06:05:26;18.97;;;12.63;;
20095;SDS011;10207;50.942;6.900;2022-11-20T06:07:52;23.47;;;13.20;;
20095;SDS011;10207;50.942;6.900;2022-11-20T06:10:18;21.30;;;12.13;;
20095;SDS011;10207;50.942;6.900;2022-11-20T06:12:43;20.10;;;11.60;;
20095;SDS011;10207;50.942;6.900;2022-11-20T06:15:09;24.17;;;13.20;;
20095;SDS011;10207;50.942;6.900;2022-11-20T06:17:35;25.48;;;12.63;;
20095;SDS011;10207;50.942;6.900;2022-11-20T06:20:01;24.88;;;12.95;;
20095;SDS011;10207;50.942;6.900;2022-11-20T06:22:26;28.27;;;13.10;;
20095;SDS011;10207;50.942;6.900;2022-11-20T06:24:52;22.60;;;12.73;;
20095;SDS011;10207;50.942;6.900;2022-11-20T06:27:18;25.50;;;13.13;;
20095;SDS011;10207;50.942;6.900;2022-11-20T06:29:44;20.60;;;12.93;;
20095;SDS011;10207;50.942;6.900;2022-11-20T06:32:09;20.93;;;12.60;;
20095;SDS011;10207;50.942;6.900;2022-11-20T06:34:35;22.20;;;14.07;;
20095;SDS011;10207;50.942;6.900;2022-11-20T06:37:01;23.40;;;12.70;;
20095;SDS011;10207;50.942;6.900;2022-11-20T06:39:27;24.97;;;14.53;;
20095;SDS011;10207;50.942;6.900;2022-11-20T06:41:52;22.50;;;14.03;;
20095;SDS011;10207;50.942;6.900;2022-11-20T06:44:18;23.43;;;13.33;;
20095;SDS011;10207;50.942;6.900;2022-11-20T06:46:44;23.07;;;12.87;;
20095;SDS011;10207;50.942;6.900;2022-11-20T06:49:09;23.33;;;13.13;;
20095;SDS011;10207;50.942;6.900;2022-11-20T06:51:35;27.87;;;14.67;;
20095;SDS011;10207;50.942;6.900;2022-11-20T06:54:01;24.37;;;13.53;;
20095;SDS011;10207;50.942;6.900;2022-11-20T06:56:27;25.80;;;14.17;;
20095;SDS011;10207;50.942;6.900;2022-11-20T06:58:53;28.20;;;15.33;;
20095;SDS011;10207;50.942;6.900;2022-11-20T07:01:19;25.40;;;14.93;;
20095;SDS011;10207;50.942;6.900;2022-11-20T07:03:44;26.70;;;14.77;;
20095;SDS011;10207;50.942;6.900;2022-11-20T07:06:10;25.00;;;14.20;;
20095;SDS011;10207;50.942;6.900;2022-11-20T07:08:36;29.00;;;15.10;;
20095;SDS011;10207;50.942;6.900;2022-11-20T07:11:03;26.37;;;13.77;;
20095;SDS011;10207;50.942;6.900;2022-11-20T07:13:29;28.33;;;14.50;;
20095;SDS011;10207;50.942;6.900;2022-11-20T07:15:58;26.57;;;15.40;;
20095;SDS011;10207;50.942;6.900;2022-11-20T07:18:24;23.43;;;13.53;;
20095;SDS011;10207;50.942;6.900;2022-11-20T07:20:50;29.33;;;14.10;;
20095;SDS011;10207;50.942;6.900;2022-11-20T07:23:16;24.80;;;14.63;;
20095;SDS011;10207;50.942;6.900;2022-11-20T07:25:41;25.63;;;13.73;;
20095;SDS011;10207;50.942;6.900;2022-11-20T07:28:07;25.33;;;14.30;;
20095;SDS011;10207;50.942;6.900;2022-11-20T07:30:33;23.33;;;12.95;;
20095;SDS011;10207;50.942;6.900;2022-11-20T07:32:59;26.60;;;14.37;;
20095;SDS011;10207;50.942;6.900;2022-11-20T07:35:25;25.17;;;13.87;;
20095;SDS011;10207;50.942;6.900;2022-11-20T07:37:51;22.67;;;13.20;;
20095;SDS011;10207;50.942;6.900;2022-11-20T07:40:17;19.40;;;12.37;;
20095;SDS011;10207;50.942;6.900;2022-11-20T07:42:49;25.23;;;12.93;;
20095;SDS011;10207;50.942;6.900;2022-11-20T07:45:15;23.33;;;12.33;;
20095;SDS011;10207;50.942;6.900;2022-11-20T07:47:41;19.83;;;11.77;;
20095;SDS011;10207;50.942;6.900;2022-11-20T07:50:07;18.80;;;10.55;;
20095;SDS011;10207;50.942;6.900;2022-11-20T07:52:33;24.40;;;12.50;;
20095;SDS011;10207;50.942;6.900;2022-11-20T07:54:58;21.67;;;12.27;;
20095;SDS011;10207;50.942;6.900;2022-11-20T07:57:24;25.30;;;13.70;;
20095;SDS011;10207;50.942;6.900;2022-11-20T07:59:50;24.90;;;13.50;;
20095;SDS011;10207;50.942;6.900;2022-11-20T08:02:15;21.63;;;12.07;;
20095;SDS011;10207;50.942;6.900;2022-11-20T08:04:41;23.02;;;12.80;;
20095;SDS011;10207;50.942;6.900;2022-11-20T08:07:07;21.40;;;11.90;;
20095;SDS011;10207;50.942;6.900;2022-11-20T08:09:32;20.88;;;12.15;;
20095;SDS011;10207;50.942;6.900;2022-11-20T08:11:58;23.45;;;12.60;;
20095;SDS011;10207;50.942;6.900;2022-11-20T08:14:42;19.27;;;12.23;;
20095;SDS011;10207;50.942;6.900;2022-11-20T08:17:08;19.52;;;11.85;;
20095;SDS011;10207;50.942;6.900;2022-11-20T08:19:34;22.23;;;12.82;;
20095;SDS011;10207;50.942;6.900;2022-11-20T08:21:59;23.83;;;12.77;;
20095;SDS011;10207;50.942;6.900;2022-11-20T08:24:25;21.40;;;12.18;;
20095;SDS011;10207;50.942;6.900;2022-11-20T08:26:51;21.90;;;12.43;;
20095;SDS011;10207;50.942;6.900;2022-11-20T08:29:17;19.50;;;11.98;;
20095;SDS011;10207;50.942;6.900;2022-11-20T08:31:43;22.20;;;12.93;;
20095;SDS011;10207;50.942;6.900;2022-11-20T08:34:09;21.10;;;12.95;;
20095;SDS011;10207;50.942;6.900;2022-11-20T08:36:35;21.53;;;12.40;;
20095;SDS011;10207;50.942;6.900;2022-11-20T08:39:01;21.38;;;11.85;;
20095;SDS011;10207;50.942;6.900;2022-11-20T08:41:26;19.08;;;11.15;;
20095;SDS011;10207;50.942;6.900;2022-11-20T08:43:53;17.98;;;10.40;;
20095;SDS011;10207;50.942;6.900;2022-11-20T08:46:19;16.42;;;10.10;;
20095;SDS011;10207;50.942;6.900;2022-11-20T08:48:45;18.52;;;10.63;;
20095;SDS011;10207;50.942;6.900;2022-11-20T08:51:11;16.73;;;9.70;;
20095;SDS011;10207;50.942;6.900;2022-11-20T08:53:37;18.67;;;11.18;;
20095;SDS011;10207;50.942;6.900;2022-11-20T08:56:03;18.70;;;10.35;;
20095;SDS011;10207;50.942;6.900;2022-11-20T08:58:29;18.80;;;10.88;;
20095;SDS011;10207;50.942;6.900;2022-11-20T09:00:55;16.38;;;9.75;;
20095;SDS011;10207;50.942;6.900;2022-11-20T09:03:21;17.27;;;10.85;;
20095;SDS011;10207;50.942;6.900;2022-11-20T09:05:46;17.20;;;10.52;;
20095;SDS011;10207;50.942;6.900;2022-11-20T09:08:12;19.85;;;10.70;;
20095;SDS011;10207;50.942;6.900;2022-11-20T09:10:38;22.17;;;11.52;;
20095;SDS011;10207;50.942;6.900;2022-11-20T09:13:07;18.67;;;11.15;;
20095;SDS011;10207;50.942;6.900;2022-11-20T09:15:32;17.08;;;10.63;;
20095;SDS011;10207;50.942;6.900;2022-11-20T09:18:00;16.27;;;8.75;;
20095;SDS011;10207;50.942;6.900;2022-11-20T09:20:26;16.63;;;9.65;;
20095;SDS011;10207;50.942;6.900;2022-11-20T09:22:52;19.27;;;11.02;;
20095;SDS011;10207;50.942;6.900;2022-11-20T09:25:18;18.63;;;11.05;;
20095;SDS011;10207;50.942;6.900;2022-11-20T09:27:43;21.83;;;11.98;;
20095;SDS011;10207;50.942;6.900;2022-11-20T09:30:11;22.25;;;12.23;;
20095;SDS011;10207;50.942;6.900;2022-11-20T09:32:41;20.85;;;12.23;;
20095;SDS011;10207;50.942;6.900;2022-11-20T09:35:06;22.90;;;11.73;;
20095;SDS011;10207;50.942;6.900;2022-11-20T09:37:32;22.33;;;11.93;;
20095;SDS011;10207;50.942;6.900;2022-11-20T09:39:58;20.40;;;12.35;;
20095;SDS011;10207;50.942;6.900;2022-11-20T09:45:23;21.90;;;11.65;;
20095;SDS011;10207;50.942;6.900;2022-11-20T09:50:38;18.58;;;10.55;;
20095;SDS011;10207;50.942;6.900;2022-11-20T09:53:12;19.67;;;11.95;;
20095;SDS011;10207;50.942;6.900;2022-11-20T09:55:39;21.83;;;11.85;;
20095;SDS011;10207;50.942;6.900;2022-11-20T09:58:12;20.92;;;11.90;;
20095;SDS011;10207;50.942;6.900;2022-11-20T10:00:40;19.90;;;12.07;;
20095;SDS011;10207;50.942;6.900;2022-11-20T10:03:26;20.58;;;12.43;;
20095;SDS011;10207;50.942;6.900;2022-11-20T10:05:55;23.85;;;12.35;;
20095;SDS011;10207;50.942;6.900;2022-11-20T10:08:32;19.05;;;10.85;;
20095;SDS011;10207;50.942;6.900;2022-11-20T10:11:04;22.60;;;12.00;;
20095;SDS011;10207;50.942;6.900;2022-11-20T10:13:40;19.55;;;12.18;;
20095;SDS011;10207;50.942;6.900;2022-11-20T10:29:15;24.83;;;14.07;;
20095;SDS011;10207;50.942;6.900;2022-11-20T10:31:54;24.77;;;13.93;;
20095;SDS011;10207;50.942;6.900;2022-11-20T10:34:21;27.77;;;14.85;;
20095;SDS011;10207;50.942;6.900;2022-11-20T10:36:50;31.35;;;15.48;;
20095;SDS011;10207;50.942;6.900;2022-11-20T10:42:02;24.63;;;13.88;;
20095;SDS011;10207;50.942;6.900;2022-11-20T10:44:31;27.60;;;14.93;;
20095;SDS011;10207;50.942;6.900;2022-11-20T10:47:17;25.85;;;14.65;;
20095;SDS011;10207;50.942;6.900;2022-11-20T10:49:43;22.23;;;13.93;;
20095;SDS011;10207;50.942;6.900;2022-11-20T11:00:08;26.40;;;15.00;;
20095;SDS011;10207;50.942;6.900;2022-11-20T11:05:10;25.05;;;14.48;;
20095;SDS011;10207;50.942;6.900;2022-11-20T11:07:36;25.63;;;15.10;;
20095;SDS011;10207;50.942;6.900;2022-11-20T11:10:05;24.98;;;14.85;;
20095;SDS011;10207;50.942;6.900;2022-11-20T11:12:37;24.20;;;14.80;;
20095;SDS011;10207;50.942;6.900;2022-11-20T11:15:42;25.13;;;14.40;;
20095;SDS011;10207;50.942;6.900;2022-11-20T11:18:00;25.63;;;14.17;;
20095;SDS011;10207;50.942;6.900;2022-11-20T11:20:26;25.87;;;13.77;;
20095;SDS011;10207;50.942;6.900;2022-11-20T11:22:56;25.33;;;14.52;;
20095;SDS011;10207;50.942;6.900;2022-11-20T11:27:51;23.27;;;14.45;;
20095;SDS011;10207;50.942;6.900;2022-11-20T11:30:18;22.55;;;14.13;;
20095;SDS011;10207;50.942;6.900;2022-11-20T11:32:44;21.60;;;13.18;;
20095;SDS011;10207;50.942;6.900;2022-11-20T11:37:45;23.88;;;13.70;;
20095;SDS011;10207;50.942;6.900;2022-11-20T11:40:12;23.05;;;13.05;;
20095;SDS011;10207;50.942;6.900;2022-11-20T11:42:46;23.90;;;13.77;;
20095;SDS011;10207;50.942;6.900;2022-11-20T11:45:16;22.88;;;13.95;;
20095;SDS011;10207;50.942;6.900;2022-11-20T11:53:20;25.05;;;14.95;;
20095;SDS011;10207;50.942;6.900;2022-11-20T11:55:24;24.17;;;13.63;;
20095;SDS011;10207;50.942;6.900;2022-11-20T11:58:01;23.73;;;14.20;;
20095;SDS011;10207;50.942;6.900;2022-11-20T12:00:29;27.38;;;13.95;;
20095;SDS011;10207;50.942;6.900;2022-11-20T12:02:57;23.92;;;13.95;;
20095;SDS011;10207;50.942;6.900;2022-11-20T12:05:27;25.02;;;13.05;;
20095;SDS011;10207;50.942;6.900;2022-11-20T12:10:35;23.33;;;13.77;;
20095;SDS011;10207;50.942;6.900;2022-11-20T12:15:38;23.50;;;13.02;;
20095;SDS011;10207;50.942;6.900;2022-11-20T12:18:25;25.48;;;14.18;;
20095;SDS011;10207;50.942;6.900;2022-11-20T12:23:42;27.50;;;15.40;;
20095;SDS011;10207;50.942;6.900;2022-11-20T12:26:34;21.95;;;13.05;;
20095;SDS011;10207;50.942;6.900;2022-11-20T12:29:05;25.80;;;13.90;;
20095;SDS011;10207;50.942;6.900;2022-11-20T12:34:24;26.27;;;15.00;;
20095;SDS011;10207;50.942;6.900;2022-11-20T12:37:06;24.65;;;14.35;;
20095;SDS011;10207;50.942;6.900;2022-11-20T12:39:35;25.42;;;14.32;;
20095;SDS011;10207;50.942;6.900;2022-11-20T12:45:02;26.00;;;13.55;;
20095;SDS011;10207;50.942;6.900;2022-11-20T12:52:54;21.98;;;11.23;;
20095;SDS011;10207;50.942;6.900;2022-11-20T12:55:27;23.67;;;13.45;;
20095;SDS011;10207;50.942;6.900;2022-11-20T12:58:13;23.27;;;12.63;;
20095;SDS011;10207;50.942;6.900;2022-11-20T13:03:40;21.17;;;10.93;;
20095;SDS011;10207;50.942;6.900;2022-11-20T13:06:15;22.05;;;13.07;;
20095;SDS011;10207;50.942;6.900;2022-11-20T13:08:43;25.65;;;14.45;;
20095;SDS011;10207;50.942;6.900;2022-11-20T13:11:18;23.27;;;13.40;;
20095;SDS011;10207;50.942;6.900;2022-11-20T13:19:09;25.23;;;14.13;;
20095;SDS011;10207;50.942;6.900;2022-11-20T13:21:37;22.55;;;12.77;;
20095;SDS011;10207;50.942;6.900;2022-11-20T13:24:06;21.08;;;12.70;;
20095;SDS011;10207;50.942;6.900;2022-11-20T13:26:32;21.42;;;12.85;;
20095;SDS011;10207;50.942;6.900;2022-11-20T13:29:12;21.45;;;11.32;;
20095;SDS011;10207;50.942;6.900;2022-11-20T13:31:39;21.35;;;12.38;;
20095;SDS011;10207;50.942;6.900;2022-11-20T13:34:09;23.77;;;12.65;;
20095;SDS011;10207;50.942;6.900;2022-11-20T13:36:37;19.88;;;12.35;;
20095;SDS011;10207;50.942;6.900;2022-11-20T13:39:23;22.45;;;12.32;;
20095;SDS011;10207;50.942;6.900;2022-11-20T13:41:53;22.65;;;12.45;;
20095;SDS011;10207;50.942;6.900;2022-11-20T13:44:39;22.90;;;12.90;;
20095;SDS011;10207;50.942;6.900;2022-11-20T13:47:18;21.73;;;12.43;;
20095;SDS011;10207;50.942;6.900;2022-11-20T13:49:45;23.48;;;12.95;;
20095;SDS011;10207;50.942;6.900;2022-11-20T13:52:27;19.73;;;12.25;;
20095;SDS011;10207;50.942;6.900;2022-11-20T14:00:20;28.17;;;14.27;;
20095;SDS011;10207;50.942;6.900;2022-11-20T14:02:52;23.30;;;13.18;;
20095;SDS011;10207;50.942;6.900;2022-11-20T14:05:23;22.77;;;12.50;;
20095;SDS011;10207;50.942;6.900;2022-11-20T14:07:49;20.67;;;10.73;;
20095;SDS011;10207;50.942;6.900;2022-11-20T14:10:26;26.40;;;14.27;;
20095;SDS011;10207;50.942;6.900;2022-11-20T14:12:52;25.17;;;12.65;;
20095;SDS011;10207;50.942;6.900;2022-11-20T14:15:31;24.83;;;13.20;;
20095;SDS011;10207;50.942;6.900;2022-11-20T14:17:58;23.50;;;12.80;;
20095;SDS011;10207;50.942;6.900;2022-11-20T14:20:25;22.75;;;13.10;;
20095;SDS011;10207;50.942;6.900;2022-11-20T14:22:52;23.08;;;12.57;;
20095;SDS011;10207;50.942;6.900;2022-11-20T14:25:19;24.15;;;13.68;;
20095;SDS011;10207;50.942;6.900;2022-11-20T14:27:55;23.45;;;13.77;;
20095;SDS011;10207;50.942;6.900;2022-11-20T14:30:22;21.50;;;11.73;;
20095;SDS011;10207;50.942;6.900;2022-11-20T14:32:48;25.53;;;13.60;;
20095;SDS011;10207;50.942;6.900;2022-11-20T14:35:20;20.83;;;11.07;;
20095;SDS011;10207;50.942;6.900;2022-11-20T14:37:47;23.60;;;12.75;;
20095;SDS011;10207;50.942;6.900;2022-11-20T14:42:51;23.15;;;13.35;;
20095;SDS011;10207;50.942;6.900;2022-11-20T14:45:16;21.00;;;11.70;;
20095;SDS011;10207;50.942;6.900;2022-11-20T14:47:43;21.52;;;11.30;;
20095;SDS011;10207;50.942;6.900;2022-11-20T14:50:25;22.23;;;11.68;;
20095;SDS011;10207;50.942;6.900;2022-11-20T14:52:55;23.13;;;12.55;;
20095;SDS011;10207;50.942;6.900;2022-11-20T14:55:28;20.73;;;12.27;;
20095;SDS011;10207;50.942;6.900;2022-11-20T14:57:56;21.73;;;12.98;;
20095;SDS011;10207;50.942;6.900;2022-11-20T15:00:22;21.40;;;12.18;;
20095;SDS011;10207;50.942;6.900;2022-11-20T15:02:49;22.08;;;12.77;;
20095;SDS011;10207;50.942;6.900;2022-11-20T15:05:15;22.52;;;12.48;;
20095;SDS011;10207;50.942;6.900;2022-11-20T15:07:42;24.85;;;14.45;;
20095;SDS011;10207;50.942;6.900;2022-11-20T15:10:32;23.13;;;12.88;;
20095;SDS011;10207;50.942;6.900;2022-11-20T15:13:39;21.63;;;11.88;;
20095;SDS011;10207;50.942;6.900;2022-11-20T15:15:47;22.67;;;12.55;;
20095;SDS011;10207;50.942;6.900;2022-11-20T15:18:15;26.02;;;14.18;;
20095;SDS011;10207;50.942;6.900;2022-11-20T15:20:42;26.05;;;14.13;;
20095;SDS011;10207;50.942;6.900;2022-11-20T15:23:09;27.20;;;14.07;;
20095;SDS011;10207;50.942;6.900;2022-11-20T15:25:36;26.60;;;14.20;;
20095;SDS011;10207;50.942;6.900;2022-11-20T15:28:04;27.13;;;15.55;;
20095;SDS011;10207;50.942;6.900;2022-11-20T15:30:30;25.23;;;13.38;;
20095;SDS011;10207;50.942;6.900;2022-11-20T15:32:55;28.92;;;15.55;;
20095;SDS011;10207;50.942;6.900;2022-11-20T15:35:21;29.30;;;16.25;;
20095;SDS011;10207;50.942;6.900;2022-11-20T15:37:47;26.33;;;14.25;;
20095;SDS011;10207;50.942;6.900;2022-11-20T15:40:13;29.40;;;16.25;;
20095;SDS011;10207;50.942;6.900;2022-11-20T15:42:38;31.83;;;14.05;;
20095;SDS011;10207;50.942;6.900;2022-11-20T15:45:24;28.00;;;14.77;;
20095;SDS011;10207;50.942;6.900;2022-11-20T15:47:50;26.60;;;14.35;;
20095;SDS011;10207;50.942;6.900;2022-11-20T15:50:15;31.75;;;16.17;;
20095;SDS011;10207;50.942;6.900;2022-11-20T15:52:42;35.45;;;17.42;;